Terminal Aerodrome Forecast
Issued by NWS

Home | Current Version | Previous Version | Text Only | Print | Product List | Glossary On
Versions: 1 2 3 4 5 6 7 8 9 10 11 12 13 14 15 16 17 18 19
000
FTUS43 KICT 251720
TAFRSL
TAF
KRSL 251720Z 2518/2618 36015KT P6SM OVC015
     FM252200 04012KT P6SM OVC015
     FM260700 07015KT 5SM BR OVC007
     FM261500 07015KT P6SM OVC015=

USA.gov is the U.S. government's official web portal to all federal, state and local government web resources and services.